sensor_id;sensor_type;location;lat;lon;timestamp;P1;durP1;ratioP1;P2;durP2;ratioP2
8708;SDS011;4391;48.678;9.280;2024-03-29T00:01:16;5.45;;;2.55;;
8708;SDS011;4391;48.678;9.280;2024-03-29T00:03:42;7.53;;;3.50;;
8708;SDS011;4391;48.678;9.280;2024-03-29T00:06:10;3.30;;;1.00;;
8708;SDS011;4391;48.678;9.280;2024-03-29T00:08:36;2.90;;;1.20;;
8708;SDS011;4391;48.678;9.280;2024-03-29T00:11:02;4.55;;;1.67;;
8708;SDS011;4391;48.678;9.280;2024-03-29T00:13:28;11.52;;;2.80;;
8708;SDS011;4391;48.678;9.280;2024-03-29T00:15:54;6.60;;;2.40;;
8708;SDS011;4391;48.678;9.280;2024-03-29T00:18:20;6.27;;;2.80;;
8708;SDS011;4391;48.678;9.280;2024-03-29T00:20:47;6.37;;;2.57;;
8708;SDS011;4391;48.678;9.280;2024-03-29T00:23:14;7.93;;;2.97;;
8708;SDS011;4391;48.678;9.280;2024-03-29T00:25:40;6.75;;;2.50;;
8708;SDS011;4391;48.678;9.280;2024-03-29T00:28:06;8.20;;;2.58;;
8708;SDS011;4391;48.678;9.280;2024-03-29T00:30:32;10.17;;;2.70;;
8708;SDS011;4391;48.678;9.280;2024-03-29T00:32:58;7.18;;;2.60;;
8708;SDS011;4391;48.678;9.280;2024-03-29T00:35:24;5.10;;;2.45;;
8708;SDS011;4391;48.678;9.280;2024-03-29T00:37:50;6.93;;;2.67;;
8708;SDS011;4391;48.678;9.280;2024-03-29T00:40:17;8.33;;;2.93;;
8708;SDS011;4391;48.678;9.280;2024-03-29T00:42:43;6.57;;;2.60;;
8708;SDS011;4391;48.678;9.280;2024-03-29T00:45:09;9.10;;;3.08;;
8708;SDS011;4391;48.678;9.280;2024-03-29T00:47:35;7.03;;;2.70;;
8708;SDS011;4391;48.678;9.280;2024-03-29T00:50:01;9.65;;;3.33;;
8708;SDS011;4391;48.678;9.280;2024-03-29T00:52:27;6.57;;;2.50;;
8708;SDS011;4391;48.678;9.280;2024-03-29T00:54:52;7.45;;;2.85;;
8708;SDS011;4391;48.678;9.280;2024-03-29T00:57:20;7.85;;;2.53;;
8708;SDS011;4391;48.678;9.280;2024-03-29T00:59:46;8.17;;;3.10;;
8708;SDS011;4391;48.678;9.280;2024-03-29T01:02:12;10.05;;;3.20;;
8708;SDS011;4391;48.678;9.280;2024-03-29T01:04:38;8.20;;;3.40;;
8708;SDS011;4391;48.678;9.280;2024-03-29T01:07:04;7.68;;;3.53;;
8708;SDS011;4391;48.678;9.280;2024-03-29T01:09:30;10.17;;;2.87;;
8708;SDS011;4391;48.678;9.280;2024-03-29T01:11:55;6.32;;;2.60;;
8708;SDS011;4391;48.678;9.280;2024-03-29T01:14:23;8.13;;;2.28;;
8708;SDS011;4391;48.678;9.280;2024-03-29T01:16:49;6.70;;;2.50;;
8708;SDS011;4391;48.678;9.280;2024-03-29T01:19:14;5.73;;;2.00;;
8708;SDS011;4391;48.678;9.280;2024-03-29T01:21:40;6.07;;;1.98;;
8708;SDS011;4391;48.678;9.280;2024-03-29T01:24:06;4.60;;;1.80;;
8708;SDS011;4391;48.678;9.280;2024-03-29T01:26:32;4.65;;;1.63;;
8708;SDS011;4391;48.678;9.280;2024-03-29T01:28:58;2.77;;;0.90;;
8708;SDS011;4391;48.678;9.280;2024-03-29T01:31:25;4.53;;;1.30;;
8708;SDS011;4391;48.678;9.280;2024-03-29T01:33:51;2.85;;;0.80;;
8708;SDS011;4391;48.678;9.280;2024-03-29T01:36:17;4.00;;;1.60;;
8708;SDS011;4391;48.678;9.280;2024-03-29T01:38:43;3.40;;;1.10;;
8708;SDS011;4391;48.678;9.280;2024-03-29T01:41:10;5.18;;;1.75;;
8708;SDS011;4391;48.678;9.280;2024-03-29T01:43:35;4.63;;;1.73;;
8708;SDS011;4391;48.678;9.280;2024-03-29T01:46:02;6.17;;;2.10;;
8708;SDS011;4391;48.678;9.280;2024-03-29T01:48:32;4.18;;;1.55;;
8708;SDS011;4391;48.678;9.280;2024-03-29T01:50:59;5.55;;;2.25;;
8708;SDS011;4391;48.678;9.280;2024-03-29T01:53:27;5.18;;;2.20;;
8708;SDS011;4391;48.678;9.280;2024-03-29T01:55:56;6.47;;;2.17;;
8708;SDS011;4391;48.678;9.280;2024-03-29T01:58:24;5.37;;;2.07;;
8708;SDS011;4391;48.678;9.280;2024-03-29T02:00:52;5.13;;;1.60;;
8708;SDS011;4391;48.678;9.280;2024-03-29T02:03:19;5.97;;;1.60;;
8708;SDS011;4391;48.678;9.280;2024-03-29T02:05:49;6.05;;;1.75;;
8708;SDS011;4391;48.678;9.280;2024-03-29T02:08:16;5.47;;;2.03;;
8708;SDS011;4391;48.678;9.280;2024-03-29T02:10:43;5.60;;;2.20;;
8708;SDS011;4391;48.678;9.280;2024-03-29T02:13:12;7.85;;;2.40;;
8708;SDS011;4391;48.678;9.280;2024-03-29T02:15:38;6.97;;;2.40;;
8708;SDS011;4391;48.678;9.280;2024-03-29T02:18:06;7.72;;;2.58;;
8708;SDS011;4391;48.678;9.280;2024-03-29T02:20:33;6.13;;;1.90;;
8708;SDS011;4391;48.678;9.280;2024-03-29T02:23:05;4.88;;;1.77;;
8708;SDS011;4391;48.678;9.280;2024-03-29T02:25:36;5.43;;;2.00;;
8708;SDS011;4391;48.678;9.280;2024-03-29T02:28:04;5.15;;;1.70;;
8708;SDS011;4391;48.678;9.280;2024-03-29T02:30:31;5.00;;;1.70;;
8708;SDS011;4391;48.678;9.280;2024-03-29T02:32:58;4.60;;;1.27;;
8708;SDS011;4391;48.678;9.280;2024-03-29T02:35:25;4.63;;;1.38;;
8708;SDS011;4391;48.678;9.280;2024-03-29T02:37:53;4.97;;;1.42;;
8708;SDS011;4391;48.678;9.280;2024-03-29T02:40:20;4.78;;;1.83;;
8708;SDS011;4391;48.678;9.280;2024-03-29T02:42:48;4.30;;;1.98;;
8708;SDS011;4391;48.678;9.280;2024-03-29T02:45:16;4.73;;;1.17;;
8708;SDS011;4391;48.678;9.280;2024-03-29T02:47:43;3.53;;;1.05;;
8708;SDS011;4391;48.678;9.280;2024-03-29T02:50:09;3.35;;;0.90;;
8708;SDS011;4391;48.678;9.280;2024-03-29T02:52:37;3.45;;;1.27;;
8708;SDS011;4391;48.678;9.280;2024-03-29T02:55:03;3.67;;;1.00;;
8708;SDS011;4391;48.678;9.280;2024-03-29T02:57:31;4.33;;;1.30;;
8708;SDS011;4391;48.678;9.280;2024-03-29T02:59:58;4.35;;;1.13;;
8708;SDS011;4391;48.678;9.280;2024-03-29T03:02:25;3.03;;;1.02;;
8708;SDS011;4391;48.678;9.280;2024-03-29T03:04:50;2.60;;;0.60;;
8708;SDS011;4391;48.678;9.280;2024-03-29T03:07:17;2.35;;;0.50;;
8708;SDS011;4391;48.678;9.280;2024-03-29T03:10:02;0.73;;;0.30;;
8708;SDS011;4391;48.678;9.280;2024-03-29T03:12:46;0.93;;;0.30;;
8708;SDS011;4391;48.678;9.280;2024-03-29T03:15:15;1.15;;;0.35;;
8708;SDS011;4391;48.678;9.280;2024-03-29T03:17:41;1.33;;;0.30;;
8708;SDS011;4391;48.678;9.280;2024-03-29T03:20:09;0.93;;;0.20;;
8708;SDS011;4391;48.678;9.280;2024-03-29T03:22:36;1.25;;;0.55;;
8708;SDS011;4391;48.678;9.280;2024-03-29T03:25:04;1.33;;;0.40;;
8708;SDS011;4391;48.678;9.280;2024-03-29T03:27:33;1.17;;;0.50;;
8708;SDS011;4391;48.678;9.280;2024-03-29T03:30:00;1.13;;;0.43;;
8708;SDS011;4391;48.678;9.280;2024-03-29T03:32:27;0.80;;;0.40;;
8708;SDS011;4391;48.678;9.280;2024-03-29T03:34:54;1.50;;;0.45;;
8708;SDS011;4391;48.678;9.280;2024-03-29T03:37:20;0.90;;;0.30;;
8708;SDS011;4391;48.678;9.280;2024-03-29T03:39:47;0.73;;;0.40;;
8708;SDS011;4391;48.678;9.280;2024-03-29T03:42:13;4.13;;;0.80;;
8708;SDS011;4391;48.678;9.280;2024-03-29T03:44:39;2.95;;;0.90;;
8708;SDS011;4391;48.678;9.280;2024-03-29T03:47:05;3.03;;;1.00;;
8708;SDS011;4391;48.678;9.280;2024-03-29T03:49:33;3.37;;;1.00;;
8708;SDS011;4391;48.678;9.280;2024-03-29T03:51:59;2.10;;;0.80;;
8708;SDS011;4391;48.678;9.280;2024-03-29T03:54:27;3.33;;;0.80;;
8708;SDS011;4391;48.678;9.280;2024-03-29T03:56:54;2.85;;;0.93;;
8708;SDS011;4391;48.678;9.280;2024-03-29T03:59:21;4.10;;;1.10;;
8708;SDS011;4391;48.678;9.280;2024-03-29T04:01:47;3.53;;;1.00;;
8708;SDS011;4391;48.678;9.280;2024-03-29T04:04:16;2.90;;;0.80;;
8708;SDS011;4391;48.678;9.280;2024-03-29T04:06:43;4.03;;;0.75;;
8708;SDS011;4391;48.678;9.280;2024-03-29T04:09:10;2.10;;;0.90;;
8708;SDS011;4391;48.678;9.280;2024-03-29T04:11:36;2.53;;;0.90;;
8708;SDS011;4391;48.678;9.280;2024-03-29T04:14:03;3.25;;;0.70;;
8708;SDS011;4391;48.678;9.280;2024-03-29T04:16:29;3.15;;;0.70;;
8708;SDS011;4391;48.678;9.280;2024-03-29T04:18:55;2.83;;;0.90;;
8708;SDS011;4391;48.678;9.280;2024-03-29T04:21:21;2.78;;;0.50;;
8708;SDS011;4391;48.678;9.280;2024-03-29T04:23:50;2.05;;;0.55;;
8708;SDS011;4391;48.678;9.280;2024-03-29T04:26:15;4.03;;;1.08;;
8708;SDS011;4391;48.678;9.280;2024-03-29T04:28:42;3.37;;;0.90;;
8708;SDS011;4391;48.678;9.280;2024-03-29T04:31:08;2.40;;;0.80;;
8708;SDS011;4391;48.678;9.280;2024-03-29T04:33:35;2.30;;;0.70;;
8708;SDS011;4391;48.678;9.280;2024-03-29T04:36:02;2.23;;;0.70;;
8708;SDS011;4391;48.678;9.280;2024-03-29T04:38:30;1.63;;;0.63;;
8708;SDS011;4391;48.678;9.280;2024-03-29T04:40:59;2.92;;;0.50;;
8708;SDS011;4391;48.678;9.280;2024-03-29T04:43:26;1.98;;;0.45;;
8708;SDS011;4391;48.678;9.280;2024-03-29T04:46:01;2.20;;;0.70;;
8708;SDS011;4391;48.678;9.280;2024-03-29T04:48:30;2.00;;;0.80;;
8708;SDS011;4391;48.678;9.280;2024-03-29T04:53:25;2.67;;;0.95;;
8708;SDS011;4391;48.678;9.280;2024-03-29T04:55:55;2.83;;;0.80;;
8708;SDS011;4391;48.678;9.280;2024-03-29T04:58:23;1.70;;;0.73;;
8708;SDS011;4391;48.678;9.280;2024-03-29T05:00:50;2.03;;;0.60;;
8708;SDS011;4391;48.678;9.280;2024-03-29T05:03:18;2.03;;;0.67;;
8708;SDS011;4391;48.678;9.280;2024-03-29T05:05:48;2.63;;;0.70;;
8708;SDS011;4391;48.678;9.280;2024-03-29T05:08:16;1.98;;;0.55;;
8708;SDS011;4391;48.678;9.280;2024-03-29T05:10:47;2.20;;;0.70;;
8708;SDS011;4391;48.678;9.280;2024-03-29T05:13:15;1.85;;;0.60;;
8708;SDS011;4391;48.678;9.280;2024-03-29T05:15:43;2.83;;;0.93;;
8708;SDS011;4391;48.678;9.280;2024-03-29T05:18:10;1.95;;;0.82;;
8708;SDS011;4391;48.678;9.280;2024-03-29T05:20:38;3.40;;;1.13;;
8708;SDS011;4391;48.678;9.280;2024-03-29T05:23:06;3.50;;;1.13;;
8708;SDS011;4391;48.678;9.280;2024-03-29T05:25:33;2.28;;;0.82;;
8708;SDS011;4391;48.678;9.280;2024-03-29T05:28:00;4.43;;;0.70;;
8708;SDS011;4391;48.678;9.280;2024-03-29T05:30:28;3.17;;;0.90;;
8708;SDS011;4391;48.678;9.280;2024-03-29T05:32:57;3.60;;;0.82;;
8708;SDS011;4391;48.678;9.280;2024-03-29T05:35:24;4.18;;;0.98;;
8708;SDS011;4391;48.678;9.280;2024-03-29T05:37:51;2.00;;;0.70;;
8708;SDS011;4391;48.678;9.280;2024-03-29T05:40:19;2.97;;;0.70;;
8708;SDS011;4391;48.678;9.280;2024-03-29T05:42:50;2.00;;;0.80;;
8708;SDS011;4391;48.678;9.280;2024-03-29T05:45:23;2.78;;;1.00;;
8708;SDS011;4391;48.678;9.280;2024-03-29T05:47:52;1.95;;;0.77;;
8708;SDS011;4391;48.678;9.280;2024-03-29T05:50:21;2.85;;;0.80;;
8708;SDS011;4391;48.678;9.280;2024-03-29T05:52:49;2.13;;;0.90;;
8708;SDS011;4391;48.678;9.280;2024-03-29T05:55:17;3.20;;;0.75;;
8708;SDS011;4391;48.678;9.280;2024-03-29T05:57:45;2.42;;;0.75;;
8708;SDS011;4391;48.678;9.280;2024-03-29T06:00:13;2.70;;;0.90;;
8708;SDS011;4391;48.678;9.280;2024-03-29T06:02:51;1.90;;;0.65;;
8708;SDS011;4391;48.678;9.280;2024-03-29T06:05:18;2.97;;;0.60;;
8708;SDS011;4391;48.678;9.280;2024-03-29T06:07:48;2.45;;;0.90;;
8708;SDS011;4391;48.678;9.280;2024-03-29T06:10:17;4.03;;;1.10;;
8708;SDS011;4391;48.678;9.280;2024-03-29T06:12:44;4.18;;;1.20;;
8708;SDS011;4391;48.678;9.280;2024-03-29T06:15:11;7.25;;;3.15;;
8708;SDS011;4391;48.678;9.280;2024-03-29T06:17:55;8.23;;;3.53;;
8708;SDS011;4391;48.678;9.280;2024-03-29T06:20:22;8.30;;;3.55;;
8708;SDS011;4391;48.678;9.280;2024-03-29T06:22:51;5.47;;;2.35;;
8708;SDS011;4391;48.678;9.280;2024-03-29T06:25:17;3.92;;;1.48;;
8708;SDS011;4391;48.678;9.280;2024-03-29T06:27:45;4.43;;;1.25;;
8708;SDS011;4391;48.678;9.280;2024-03-29T06:30:14;5.43;;;1.17;;
8708;SDS011;4391;48.678;9.280;2024-03-29T06:32:43;4.88;;;1.15;;
8708;SDS011;4391;48.678;9.280;2024-03-29T06:35:11;2.75;;;0.90;;
8708;SDS011;4391;48.678;9.280;2024-03-29T06:37:38;3.70;;;1.10;;
8708;SDS011;4391;48.678;9.280;2024-03-29T06:40:07;3.65;;;1.27;;
8708;SDS011;4391;48.678;9.280;2024-03-29T06:42:35;1.10;;;0.50;;
8708;SDS011;4391;48.678;9.280;2024-03-29T06:45:02;2.00;;;0.50;;
8708;SDS011;4391;48.678;9.280;2024-03-29T06:47:33;2.53;;;0.60;;
8708;SDS011;4391;48.678;9.280;2024-03-29T06:50:00;2.47;;;0.80;;
8708;SDS011;4391;48.678;9.280;2024-03-29T06:52:27;3.28;;;1.38;;
8708;SDS011;4391;48.678;9.280;2024-03-29T06:54:54;2.47;;;0.97;;
8708;SDS011;4391;48.678;9.280;2024-03-29T06:57:22;2.72;;;0.88;;
8708;SDS011;4391;48.678;9.280;2024-03-29T06:59:51;2.40;;;1.00;;
8708;SDS011;4391;48.678;9.280;2024-03-29T07:02:18;2.78;;;0.85;;
8708;SDS011;4391;48.678;9.280;2024-03-29T07:04:45;2.03;;;0.80;;
8708;SDS011;4391;48.678;9.280;2024-03-29T07:07:12;3.13;;;0.90;;
8708;SDS011;4391;48.678;9.280;2024-03-29T07:09:38;1.77;;;0.60;;
8708;SDS011;4391;48.678;9.280;2024-03-29T07:12:05;1.63;;;0.63;;
8708;SDS011;4391;48.678;9.280;2024-03-29T07:14:34;1.88;;;0.57;;
8708;SDS011;4391;48.678;9.280;2024-03-29T07:17:01;4.97;;;0.60;;
8708;SDS011;4391;48.678;9.280;2024-03-29T07:19:28;2.23;;;0.60;;
8708;SDS011;4391;48.678;9.280;2024-03-29T07:21:54;3.45;;;0.88;;
8708;SDS011;4391;48.678;9.280;2024-03-29T07:24:21;2.72;;;1.17;;
8708;SDS011;4391;48.678;9.280;2024-03-29T07:26:48;2.38;;;0.70;;
8708;SDS011;4391;48.678;9.280;2024-03-29T07:29:15;2.33;;;0.77;;
8708;SDS011;4391;48.678;9.280;2024-03-29T07:31:44;2.10;;;0.80;;
8708;SDS011;4391;48.678;9.280;2024-03-29T07:34:11;2.28;;;0.90;;
8708;SDS011;4391;48.678;9.280;2024-03-29T07:36:38;2.53;;;0.70;;
8708;SDS011;4391;48.678;9.280;2024-03-29T07:39:05;6.50;;;1.52;;
8708;SDS011;4391;48.678;9.280;2024-03-29T07:41:33;3.25;;;1.10;;
8708;SDS011;4391;48.678;9.280;2024-03-29T07:44:03;3.23;;;1.17;;
8708;SDS011;4391;48.678;9.280;2024-03-29T07:46:32;4.47;;;1.70;;
8708;SDS011;4391;48.678;9.280;2024-03-29T07:49:01;3.63;;;1.45;;
8708;SDS011;4391;48.678;9.280;2024-03-29T07:51:28;3.38;;;1.10;;
8708;SDS011;4391;48.678;9.280;2024-03-29T07:53:55;2.28;;;0.80;;
8708;SDS011;4391;48.678;9.280;2024-03-29T07:56:22;3.63;;;0.93;;
8708;SDS011;4391;48.678;9.280;2024-03-29T07:58:50;4.82;;;1.17;;
8708;SDS011;4391;48.678;9.280;2024-03-29T08:01:18;3.53;;;1.50;;
8708;SDS011;4391;48.678;9.280;2024-03-29T08:03:46;4.20;;;1.50;;
8708;SDS011;4391;48.678;9.280;2024-03-29T08:06:15;2.22;;;0.70;;
8708;SDS011;4391;48.678;9.280;2024-03-29T08:08:44;3.50;;;1.10;;
8708;SDS011;4391;48.678;9.280;2024-03-29T08:11:11;4.38;;;1.20;;
8708;SDS011;4391;48.678;9.280;2024-03-29T08:13:38;7.65;;;2.30;;
8708;SDS011;4391;48.678;9.280;2024-03-29T08:16:06;5.75;;;3.28;;
8708;SDS011;4391;48.678;9.280;2024-03-29T08:18:33;7.63;;;4.38;;
8708;SDS011;4391;48.678;9.280;2024-03-29T08:21:00;6.93;;;3.70;;
8708;SDS011;4391;48.678;9.280;2024-03-29T08:23:30;7.15;;;3.70;;
8708;SDS011;4391;48.678;9.280;2024-03-29T08:25:57;7.88;;;3.88;;
8708;SDS011;4391;48.678;9.280;2024-03-29T08:28:24;8.05;;;4.05;;
8708;SDS011;4391;48.678;9.280;2024-03-29T08:30:58;7.28;;;2.95;;
8708;SDS011;4391;48.678;9.280;2024-03-29T08:33:25;11.87;;;7.50;;
8708;SDS011;4391;48.678;9.280;2024-03-29T08:36:02;11.18;;;5.80;;
8708;SDS011;4391;48.678;9.280;2024-03-29T08:38:30;9.20;;;4.95;;
8708;SDS011;4391;48.678;9.280;2024-03-29T08:40:57;6.18;;;2.90;;
8708;SDS011;4391;48.678;9.280;2024-03-29T08:43:24;8.73;;;3.00;;
8708;SDS011;4391;48.678;9.280;2024-03-29T08:45:51;6.73;;;2.47;;
8708;SDS011;4391;48.678;9.280;2024-03-29T08:48:18;7.10;;;2.60;;
8708;SDS011;4391;48.678;9.280;2024-03-29T08:50:45;6.60;;;2.80;;
8708;SDS011;4391;48.678;9.280;2024-03-29T08:53:12;7.60;;;2.80;;
8708;SDS011;4391;48.678;9.280;2024-03-29T08:55:40;8.70;;;2.67;;
8708;SDS011;4391;48.678;9.280;2024-03-29T08:58:07;5.00;;;2.43;;
8708;SDS011;4391;48.678;9.280;2024-03-29T09:00:34;6.47;;;2.75;;
8708;SDS011;4391;48.678;9.280;2024-03-29T09:03:01;5.05;;;2.00;;
8708;SDS011;4391;48.678;9.280;2024-03-29T09:05:28;5.00;;;2.22;;
8708;SDS011;4391;48.678;9.280;2024-03-29T09:07:54;5.75;;;2.53;;
8708;SDS011;4391;48.678;9.280;2024-03-29T09:10:22;5.30;;;2.50;;
8708;SDS011;4391;48.678;9.280;2024-03-29T09:12:51;6.47;;;1.92;;
8708;SDS011;4391;48.678;9.280;2024-03-29T09:15:18;4.60;;;1.73;;
8708;SDS011;4391;48.678;9.280;2024-03-29T09:17:45;4.18;;;1.70;;
8708;SDS011;4391;48.678;9.280;2024-03-29T09:20:12;3.85;;;1.58;;
8708;SDS011;4391;48.678;9.280;2024-03-29T09:22:39;4.73;;;1.90;;
8708;SDS011;4391;48.678;9.280;2024-03-29T09:25:06;5.10;;;1.70;;
8708;SDS011;4391;48.678;9.280;2024-03-29T09:27:36;4.85;;;1.77;;
8708;SDS011;4391;48.678;9.280;2024-03-29T09:30:07;5.07;;;1.60;;
8708;SDS011;4391;48.678;9.280;2024-03-29T09:32:35;4.20;;;1.55;;
8708;SDS011;4391;48.678;9.280;2024-03-29T09:35:02;3.33;;;1.37;;
8708;SDS011;4391;48.678;9.280;2024-03-29T09:37:29;3.45;;;1.10;;
8708;SDS011;4391;48.678;9.280;2024-03-29T09:40:01;4.07;;;1.20;;
8708;SDS011;4391;48.678;9.280;2024-03-29T09:42:29;4.32;;;1.00;;
8708;SDS011;4391;48.678;9.280;2024-03-29T09:44:58;5.32;;;1.40;;
8708;SDS011;4391;48.678;9.280;2024-03-29T09:47:29;4.37;;;1.50;;
8708;SDS011;4391;48.678;9.280;2024-03-29T09:49:58;3.85;;;1.30;;
8708;SDS011;4391;48.678;9.280;2024-03-29T09:52:26;3.08;;;1.27;;
8708;SDS011;4391;48.678;9.280;2024-03-29T09:54:53;5.28;;;1.52;;
8708;SDS011;4391;48.678;9.280;2024-03-29T09:57:22;4.60;;;1.10;;
8708;SDS011;4391;48.678;9.280;2024-03-29T09:59:54;3.27;;;0.83;;
8708;SDS011;4391;48.678;9.280;2024-03-29T10:02:21;2.63;;;1.10;;
8708;SDS011;4391;48.678;9.280;2024-03-29T10:04:55;4.18;;;1.17;;
8708;SDS011;4391;48.678;9.280;2024-03-29T10:07:22;3.55;;;1.10;;
8708;SDS011;4391;48.678;9.280;2024-03-29T10:09:50;4.88;;;1.33;;
8708;SDS011;4391;48.678;9.280;2024-03-29T10:12:17;4.40;;;1.23;;
8708;SDS011;4391;48.678;9.280;2024-03-29T10:14:44;6.28;;;1.88;;
8708;SDS011;4391;48.678;9.280;2024-03-29T10:17:17;8.38;;;3.10;;
8708;SDS011;4391;48.678;9.280;2024-03-29T10:19:45;5.80;;;2.17;;
8708;SDS011;4391;48.678;9.280;2024-03-29T10:22:14;4.65;;;1.30;;
8708;SDS011;4391;48.678;9.280;2024-03-29T10:24:41;5.33;;;1.57;;
8708;SDS011;4391;48.678;9.280;2024-03-29T10:27:08;3.28;;;1.10;;
8708;SDS011;4391;48.678;9.280;2024-03-29T10:29:35;3.40;;;1.00;;
8708;SDS011;4391;48.678;9.280;2024-03-29T10:32:02;3.75;;;1.23;;
8708;SDS011;4391;48.678;9.280;2024-03-29T10:34:30;4.10;;;1.23;;
8708;SDS011;4391;48.678;9.280;2024-03-29T10:37:01;4.37;;;1.30;;
8708;SDS011;4391;48.678;9.280;2024-03-29T10:39:30;3.38;;;1.20;;
8708;SDS011;4391;48.678;9.280;2024-03-29T10:41:59;3.95;;;1.10;;
8708;SDS011;4391;48.678;9.280;2024-03-29T10:44:28;3.58;;;1.10;;
8708;SDS011;4391;48.678;9.280;2024-03-29T10:46:56;3.00;;;1.17;;
8708;SDS011;4391;48.678;9.280;2024-03-29T10:49:24;2.80;;;1.20;;
8708;SDS011;4391;48.678;9.280;2024-03-29T10:51:51;4.53;;;1.50;;
8708;SDS011;4391;48.678;9.280;2024-03-29T10:54:22;3.70;;;1.10;;
8708;SDS011;4391;48.678;9.280;2024-03-29T10:56:54;2.80;;;1.00;;
8708;SDS011;4391;48.678;9.280;2024-03-29T10:59:26;3.92;;;0.70;;
8708;SDS011;4391;48.678;9.280;2024-03-29T11:02:07;2.03;;;0.70;;
8708;SDS011;4391;48.678;9.280;2024-03-29T11:04:39;3.22;;;0.70;;
8708;SDS011;4391;48.678;9.280;2024-03-29T11:07:11;3.28;;;0.80;;
8708;SDS011;4391;48.678;9.280;2024-03-29T11:09:42;2.75;;;0.90;;
8708;SDS011;4391;48.678;9.280;2024-03-29T11:12:13;3.28;;;1.30;;
8708;SDS011;4391;48.678;9.280;2024-03-29T11:14:42;3.13;;;1.10;;
8708;SDS011;4391;48.678;9.280;2024-03-29T11:17:12;2.28;;;0.80;;
8708;SDS011;4391;48.678;9.280;2024-03-29T11:19:40;3.55;;;0.85;;
8708;SDS011;4391;48.678;9.280;2024-03-29T11:22:07;2.67;;;0.93;;
8708;SDS011;4391;48.678;9.280;2024-03-29T11:24:34;2.90;;;0.95;;
8708;SDS011;4391;48.678;9.280;2024-03-29T11:27:08;1.60;;;0.73;;
8708;SDS011;4391;48.678;9.280;2024-03-29T11:29:37;3.83;;;0.80;;
8708;SDS011;4391;48.678;9.280;2024-03-29T11:32:10;2.10;;;0.77;;
8708;SDS011;4391;48.678;9.280;2024-03-29T11:34:43;2.03;;;0.80;;
8708;SDS011;4391;48.678;9.280;2024-03-29T11:37:11;3.63;;;0.90;;
8708;SDS011;4391;48.678;9.280;2024-03-29T11:39:38;3.43;;;0.83;;
8708;SDS011;4391;48.678;9.280;2024-03-29T11:42:06;2.45;;;0.77;;
8708;SDS011;4391;48.678;9.280;2024-03-29T11:44:33;2.83;;;1.02;;
8708;SDS011;4391;48.678;9.280;2024-03-29T11:47:02;3.85;;;0.80;;
8708;SDS011;4391;48.678;9.280;2024-03-29T11:49:33;2.50;;;0.80;;
8708;SDS011;4391;48.678;9.280;2024-03-29T11:52:03;2.43;;;0.70;;
8708;SDS011;4391;48.678;9.280;2024-03-29T11:54:38;2.10;;;0.70;;
8708;SDS011;4391;48.678;9.280;2024-03-29T11:57:05;4.32;;;0.90;;
8708;SDS011;4391;48.678;9.280;2024-03-29T11:59:32;2.20;;;0.70;;
8708;SDS011;4391;48.678;9.280;2024-03-29T12:01:58;4.85;;;0.90;;
8708;SDS011;4391;48.678;9.280;2024-03-29T12:04:27;4.07;;;1.17;;
8708;SDS011;4391;48.678;9.280;2024-03-29T12:06:54;2.33;;;0.80;;
8708;SDS011;4391;48.678;9.280;2024-03-29T12:09:21;6.10;;;0.68;;
8708;SDS011;4391;48.678;9.280;2024-03-29T12:11:48;4.13;;;0.90;;
8708;SDS011;4391;48.678;9.280;2024-03-29T12:14:15;2.42;;;0.88;;
8708;SDS011;4391;48.678;9.280;2024-03-29T12:16:42;2.97;;;0.90;;
8708;SDS011;4391;48.678;9.280;2024-03-29T12:19:10;2.40;;;0.77;;
8708;SDS011;4391;48.678;9.280;2024-03-29T12:21:49;2.60;;;0.60;;
8708;SDS011;4391;48.678;9.280;2024-03-29T12:24:17;3.25;;;1.15;;
8708;SDS011;4391;48.678;9.280;2024-03-29T12:26:44;2.33;;;0.82;;
8708;SDS011;4391;48.678;9.280;2024-03-29T12:29:11;2.37;;;0.80;;
8708;SDS011;4391;48.678;9.280;2024-03-29T12:31:39;2.40;;;0.90;;
8708;SDS011;4391;48.678;9.280;2024-03-29T12:34:06;3.00;;;0.80;;
8708;SDS011;4391;48.678;9.280;2024-03-29T12:36:33;2.42;;;0.60;;
8708;SDS011;4391;48.678;9.280;2024-03-29T12:39:01;1.80;;;0.60;;
8708;SDS011;4391;48.678;9.280;2024-03-29T12:41:30;1.63;;;0.67;;
8708;SDS011;4391;48.678;9.280;2024-03-29T12:44:00;1.95;;;0.50;;
8708;SDS011;4391;48.678;9.280;2024-03-29T12:46:25;1.75;;;0.45;;
8708;SDS011;4391;48.678;9.280;2024-03-29T12:48:56;1.70;;;0.68;;
8708;SDS011;4391;48.678;9.280;2024-03-29T12:51:24;2.17;;;0.70;;
8708;SDS011;4391;48.678;9.280;2024-03-29T12:53:52;3.03;;;1.00;;
8708;SDS011;4391;48.678;9.280;2024-03-29T12:56:22;2.95;;;0.80;;
8708;SDS011;4391;48.678;9.280;2024-03-29T12:58:49;2.60;;;0.90;;
8708;SDS011;4391;48.678;9.280;2024-03-29T13:01:15;3.67;;;1.25;;
8708;SDS011;4391;48.678;9.280;2024-03-29T13:03:42;3.47;;;1.03;;
8708;SDS011;4391;48.678;9.280;2024-03-29T13:06:09;3.83;;;1.27;;
8708;SDS011;4391;48.678;9.280;2024-03-29T13:08:36;4.30;;;1.40;;
8708;SDS011;4391;48.678;9.280;2024-03-29T13:11:03;3.67;;;1.00;;
8708;SDS011;4391;48.678;9.280;2024-03-29T13:13:32;2.17;;;1.08;;
8708;SDS011;4391;48.678;9.280;2024-03-29T13:16:00;2.23;;;0.90;;
8708;SDS011;4391;48.678;9.280;2024-03-29T13:18:27;2.90;;;0.82;;
8708;SDS011;4391;48.678;9.280;2024-03-29T13:20:53;2.13;;;0.82;;
8708;SDS011;4391;48.678;9.280;2024-03-29T13:23:21;2.65;;;0.90;;
8708;SDS011;4391;48.678;9.280;2024-03-29T13:25:48;3.55;;;0.98;;
8708;SDS011;4391;48.678;9.280;2024-03-29T13:28:16;2.77;;;0.93;;
8708;SDS011;4391;48.678;9.280;2024-03-29T13:30:44;2.45;;;0.75;;
8708;SDS011;4391;48.678;9.280;2024-03-29T13:33:13;3.92;;;1.10;;
8708;SDS011;4391;48.678;9.280;2024-03-29T13:35:41;3.72;;;1.30;;
8708;SDS011;4391;48.678;9.280;2024-03-29T13:38:09;3.38;;;1.13;;
8708;SDS011;4391;48.678;9.280;2024-03-29T13:40:36;2.90;;;0.70;;
8708;SDS011;4391;48.678;9.280;2024-03-29T13:43:04;2.28;;;0.68;;
8708;SDS011;4391;48.678;9.280;2024-03-29T13:45:32;2.33;;;0.70;;
8708;SDS011;4391;48.678;9.280;2024-03-29T13:48:00;4.53;;;0.88;;
8708;SDS011;4391;48.678;9.280;2024-03-29T13:50:27;2.47;;;0.80;;
8708;SDS011;4391;48.678;9.280;2024-03-29T13:52:54;2.87;;;0.80;;
8708;SDS011;4391;48.678;9.280;2024-03-29T13:55:21;3.85;;;0.80;;
8708;SDS011;4391;48.678;9.280;2024-03-29T13:57:50;3.22;;;0.90;;
8708;SDS011;4391;48.678;9.280;2024-03-29T14:00:18;4.40;;;0.95;;
8708;SDS011;4391;48.678;9.280;2024-03-29T14:02:45;2.40;;;0.80;;
8708;SDS011;4391;48.678;9.280;2024-03-29T14:05:13;2.43;;;0.80;;
8708;SDS011;4391;48.678;9.280;2024-03-29T14:07:40;3.10;;;0.70;;
8708;SDS011;4391;48.678;9.280;2024-03-29T14:10:07;2.90;;;0.70;;
8708;SDS011;4391;48.678;9.280;2024-03-29T14:12:35;2.75;;;0.90;;
8708;SDS011;4391;48.678;9.280;2024-03-29T14:15:02;2.10;;;0.65;;
8708;SDS011;4391;48.678;9.280;2024-03-29T14:17:31;2.33;;;0.77;;
8708;SDS011;4391;48.678;9.280;2024-03-29T14:19:57;3.05;;;0.82;;
8708;SDS011;4391;48.678;9.280;2024-03-29T14:22:26;1.83;;;0.75;;
8708;SDS011;4391;48.678;9.280;2024-03-29T14:24:56;3.13;;;1.08;;
8708;SDS011;4391;48.678;9.280;2024-03-29T14:27:23;2.85;;;0.90;;
8708;SDS011;4391;48.678;9.280;2024-03-29T14:29:50;2.00;;;0.80;;
8708;SDS011;4391;48.678;9.280;2024-03-29T14:32:17;5.38;;;0.95;;
8708;SDS011;4391;48.678;9.280;2024-03-29T14:34:44;2.90;;;0.90;;
8708;SDS011;4391;48.678;9.280;2024-03-29T14:37:11;5.30;;;0.90;;
8708;SDS011;4391;48.678;9.280;2024-03-29T14:39:42;2.70;;;0.88;;
8708;SDS011;4391;48.678;9.280;2024-03-29T14:42:09;2.03;;;0.80;;
8708;SDS011;4391;48.678;9.280;2024-03-29T14:44:38;2.45;;;0.95;;
8708;SDS011;4391;48.678;9.280;2024-03-29T14:47:05;1.83;;;0.77;;
8708;SDS011;4391;48.678;9.280;2024-03-29T14:49:32;2.55;;;0.90;;
8708;SDS011;4391;48.678;9.280;2024-03-29T14:51:59;2.33;;;0.88;;
8708;SDS011;4391;48.678;9.280;2024-03-29T14:54:26;2.87;;;0.80;;
8708;SDS011;4391;48.678;9.280;2024-03-29T14:56:55;2.47;;;0.90;;
8708;SDS011;4391;48.678;9.280;2024-03-29T14:59:22;3.30;;;0.93;;
8708;SDS011;4391;48.678;9.280;2024-03-29T15:01:49;3.33;;;0.93;;
8708;SDS011;4391;48.678;9.280;2024-03-29T15:04:15;2.40;;;0.98;;
8708;SDS011;4391;48.678;9.280;2024-03-29T15:06:42;2.93;;;0.90;;
8708;SDS011;4391;48.678;9.280;2024-03-29T15:09:11;3.10;;;0.95;;
8708;SDS011;4391;48.678;9.280;2024-03-29T15:11:38;4.07;;;1.15;;
8708;SDS011;4391;48.678;9.280;2024-03-29T15:14:07;4.65;;;1.92;;
8708;SDS011;4391;48.678;9.280;2024-03-29T15:16:35;3.03;;;1.20;;
8708;SDS011;4391;48.678;9.280;2024-03-29T15:19:02;3.33;;;0.80;;
8708;SDS011;4391;48.678;9.280;2024-03-29T15:21:29;4.72;;;1.10;;